Portada
METAR-TAF:

METAR-TAF

Aeropuertos :

Monte Cimone, Italia

latitud: 44-12N, longitud: 010-42E, altitud: 2165 m

Observación

El informe se hizo hace 1 hora y 2 minutos, a las 16:55 UTC
Viento 19 kt del suroeste
Temperatura 9°C
Humedad 71%
Presión 1014 hPa

METAR: LIVC 061655Z AUTO 22019KT //// 09/04 Q1014

Hora: 19:57 (17:57 UTC)


TAF: falta

Observaciones y pronósticos meteorológicos de más de 4000 aeropuertos (mensajes METAR y TAF).

Los puntos amarillos y rojos representan las estaciones disponibles.

Ponga el ratón en el punto deseado para ver el nombre de la estación.

Haga clic para ver las observaciones y los pronósticos meteorológicos.

Para cambiar el mapa : haga clic en los botones verdes con una cruz de color negro para hacer un zoom, en el botón verde con un guión para alejar o en las flechas verdes para mapas adyacentes.


METAR-TAF: